Time;durP1;ratioP1;P1;durP2;ratioP2;P2;SDS_P1;SDS_P2;PMS_P1;PMS_P2;Temp;Humidity;BMP_temperature;BMP_pressure;BME280_temperature;BME280_humidity;BME280_pressure;Samples;Min_cycle;Max_cycle;Signal;HPM_P1;HPM_P2
2023/06/11 00:00:23;;;;;;;3.22;1.67;;;;;;;21.59;70.65;98962.81;5091159;28;20504;-81
2023/06/11 00:02:54;;;;;;;2.40;1.42;;;;;;;21.59;70.86;98976.22;5091777;28;20062;-81
2023/06/11 00:05:24;;;;;;;4.78;2.65;;;;;;;21.33;71.03;98950.38;5074008;28;20560;-82
2023/06/11 00:07:50;;;;;;;4.72;2.25;;;;;;;21.57;71.12;98982.69;5073172;28;20051;-81
2023/06/11 00:10:16;;;;;;;2.50;2.28;;;;;;;21.63;70.70;98977.72;5089900;28;20067;-82
2023/06/11 00:12:42;;;;;;;3.58;2.15;;;;;;;21.33;71.71;98961.09;5090869;28;20060;-81
2023/06/11 00:15:08;;;;;;;3.53;1.75;;;;;;;21.17;72.50;98970.25;5074618;28;20491;-81
2023/06/11 00:17:33;;;;;;;2.75;1.80;;;;;;;20.95;73.28;98944.09;5091241;28;20123;-82
2023/06/11 00:20:03;;;;;;;3.88;1.58;;;;;;;21.23;72.51;98971.63;5091241;28;20036;-81
2023/06/11 00:22:31;;;;;;;4.65;2.42;;;;;;;21.29;72.43;98988.16;5091343;28;20032;-81
2023/06/11 00:24:57;;;;;;;2.92;1.90;;;;;;;21.26;72.65;98995.56;5091800;28;20019;-82
2023/06/11 00:27:22;;;;;;;2.85;2.30;;;;;;;21.10;72.69;98966.25;5090756;28;20485;-81
2023/06/11 00:29:48;;;;;;;3.38;2.17;;;;;;;21.12;72.60;98967.03;5090998;28;20047;-80
2023/06/11 00:32:13;;;;;;;4.30;2.20;;;;;;;21.08;72.92;98965.53;5090918;28;20089;-81
2023/06/11 00:34:39;;;;;;;3.08;2.03;;;;;;;21.14;72.86;98967.78;5090829;28;20069;-81
2023/06/11 00:37:05;;;;;;;2.38;1.48;;;;;;;21.22;72.88;98999.41;5091721;28;20032;-80
2023/06/11 00:39:30;;;;;;;3.63;2.03;;;;;;;20.96;73.14;98950.28;5090995;28;20091;-80
2023/06/11 00:41:57;;;;;;;2.90;1.65;;;;;;;20.85;73.33;98943.88;5090965;28;20024;-80
2023/06/11 00:44:22;;;;;;;2.97;2.00;;;;;;;21.21;72.84;98982.47;5090894;28;20028;-80
2023/06/11 00:46:51;;;;;;;3.13;1.75;;;;;;;21.20;72.39;98969.19;5091763;28;20031;-81
2023/06/11 00:49:17;;;;;;;2.88;2.05;;;;;;;21.38;72.03;98992.00;5090694;28;20474;-80
2023/06/11 00:51:44;;;;;;;3.47;2.00;;;;;;;21.21;71.91;98979.78;5090575;28;20020;-81
2023/06/11 00:54:16;;;;;;;3.50;0.90;;;;;;;21.05;72.29;98968.41;5090359;28;20028;-80
2023/06/11 00:56:45;;;;;;;2.92;1.88;;;;;;;21.10;72.44;98975.19;5091256;28;20035;-80
2023/06/11 00:59:15;;;;;;;4.00;2.58;;;;;;;21.28;71.88;98997.16;5090612;28;20089;-80
2023/06/11 01:01:56;;;;;;;3.92;1.95;;;;;;;21.25;71.82;98972.38;5090788;28;20060;-81
2023/06/11 01:04:23;;;;;;;2.25;1.40;;;;;;;21.19;71.27;98962.09;5071997;28;20417;-82
2023/06/11 01:06:54;;;;;;;2.08;1.55;;;;;;;21.05;72.03;98969.28;5090350;28;20100;-81
2023/06/11 01:09:22;;;;;;;4.72;1.52;;;;;;;21.27;71.54;98986.53;5090771;28;20369;-81
2023/06/11 01:11:54;;;;;;;3.65;2.03;;;;;;;21.09;72.19;98986.00;5108936;28;20019;-81
2023/06/11 01:14:20;;;;;;;4.78;1.90;;;;;;;21.20;72.14;98994.16;5089544;28;20040;-81
2023/06/11 01:17:04;;;;;;;3.15;1.77;;;;;;;21.18;72.06;98997.91;5090372;28;20032;-81
2023/06/11 01:19:52;;;;;;;2.45;1.35;;;;;;;21.11;71.98;98994.81;5105186;28;20032;-83
2023/06/11 01:22:56;;;;;;;3.40;1.70;;;;;;;20.95;72.35;98978.09;5110342;28;20045;-82
2023/06/11 01:25:30;;;;;;;3.25;2.17;;;;;;;20.89;72.45;98990.06;5019067;28;20048;-81
2023/06/11 01:28:02;;;;;;;2.08;1.45;;;;;;;20.88;72.86;98986.56;5027322;28;20124;-81
2023/06/11 01:30:30;;;;;;;3.42;2.20;;;;;;;20.80;72.61;98959.41;4992936;28;20054;-81
2023/06/11 01:32:56;;;;;;;2.72;1.90;;;;;;;21.03;72.14;98995.34;4988292;28;20034;-81
2023/06/11 01:35:23;;;;;;;1.20;0.95;;;;;;;21.05;72.53;99004.16;4988256;28;20042;-81
2023/06/11 01:37:55;;;;;;;1.60;1.30;;;;;;;21.02;72.05;98993.63;4971947;28;20388;-81
2023/06/11 01:40:22;;;;;;;2.38;1.50;;;;;;;20.98;71.93;98985.91;4988976;28;20054;-81
2023/06/11 01:42:47;;;;;;;4.82;2.33;;;;;;;20.98;72.42;99024.28;4987932;28;20039;-81
2023/06/11 01:45:13;;;;;;;5.95;2.67;;;;;;;20.81;73.10;98987.94;4988335;28;20436;-81
2023/06/11 01:47:38;;;;;;;3.45;2.30;;;;;;;20.91;72.77;99005.09;4987892;28;20516;-80
2023/06/11 01:50:04;;;;;;;2.78;1.73;;;;;;;20.90;72.42;98994.47;4989290;28;20038;-81
2023/06/11 01:52:30;;;;;;;2.08;1.35;;;;;;;20.94;72.09;98998.66;4971570;28;20378;-81
2023/06/11 01:54:55;;;;;;;2.80;1.38;;;;;;;21.03;71.49;98995.34;4987860;28;20193;-81
2023/06/11 01:57:21;;;;;;;3.60;1.85;;;;;;;20.98;72.01;99010.88;4988436;28;20030;-82
2023/06/11 01:59:46;;;;;;;3.75;1.65;;;;;;;20.99;71.83;98992.97;4988049;28;20536;-80
2023/06/11 02:02:12;;;;;;;2.88;1.80;;;;;;;20.98;71.83;98988.59;5042582;28;20126;-81
2023/06/11 02:04:37;;;;;;;3.17;2.47;;;;;;;20.87;71.75;98960.69;5089353;28;20027;-80
2023/06/11 02:07:03;;;;;;;1.90;1.45;;;;;;;20.76;72.02;98968.63;5089514;28;20039;-81
2023/06/11 02:09:29;;;;;;;3.50;2.25;;;;;;;20.98;71.38;98985.91;5070062;28;20036;-80
2023/06/11 02:11:55;;;;;;;2.97;1.40;;;;;;;20.88;71.16;98999.06;5091052;28;20084;-80
2023/06/11 02:14:20;;;;;;;4.68;1.80;;;;;;;20.57;72.35;98996.66;5089166;28;20024;-81
2023/06/11 02:16:45;;;;;;;3.13;1.75;;;;;;;20.64;72.36;98983.69;5089665;28;20138;-81
2023/06/11 02:19:11;;;;;;;2.78;1.50;;;;;;;20.61;71.74;98972.31;5089350;28;20024;-80
2023/06/11 02:21:36;;;;;;;3.80;2.45;;;;;;;20.84;72.42;99027.06;5090548;28;20105;-81
2023/06/11 02:24:02;;;;;;;1.98;1.20;;;;;;;20.79;72.58;99021.16;5089215;28;20028;-82
2023/06/11 02:26:27;;;;;;;3.03;2.15;;;;;;;20.58;72.23;98992.97;5089650;28;20124;-80
2023/06/11 02:28:53;;;;;;;2.47;1.40;;;;;;;20.54;72.41;99010.25;5089390;28;20036;-81
2023/06/11 02:31:18;;;;;;;3.28;2.50;;;;;;;20.70;72.30;99030.69;5089770;28;20389;-81
2023/06/11 02:33:44;;;;;;;2.65;1.60;;;;;;;20.48;72.78;98999.06;5092503;28;20034;-81
2023/06/11 02:36:10;;;;;;;1.52;1.20;;;;;;;20.55;72.90;99019.97;5092906;28;20036;-81
2023/06/11 02:38:35;;;;;;;2.58;1.60;;;;;;;20.60;72.92;99030.38;5093212;28;20039;-81
2023/06/11 02:41:01;;;;;;;3.25;1.80;;;;;;;20.55;72.57;99027.16;5092819;28;20044;-80
2023/06/11 02:43:26;;;;;;;3.13;1.77;;;;;;;20.31;72.80;98989.47;5093829;28;20498;-80
2023/06/11 02:45:51;;;;;;;3.78;2.55;;;;;;;20.25;73.35;98997.91;5092945;28;20024;-80
2023/06/11 02:48:17;;;;;;;2.03;1.70;;;;;;;20.20;73.83;99011.59;5093255;28;20059;-80
2023/06/11 02:50:42;;;;;;;0.80;0.80;;;;;;;20.35;73.59;99031.16;5092691;28;20111;-80
2023/06/11 02:53:08;;;;;;;3.03;1.38;;;;;;;20.30;73.91;99033.31;5093164;28;20252;-80
2023/06/11 02:55:33;;;;;;;4.13;1.05;;;;;;;19.93;74.22;98982.16;5094803;27;20455;-80
2023/06/11 02:57:59;;;;;;;3.90;2.45;;;;;;;19.77;74.78;98982.28;5084858;28;20111;-81
2023/06/11 03:00:25;;;;;;;4.20;2.00;;;;;;;20.01;74.88;99004.78;5113029;28;20028;-80
2023/06/11 03:02:51;;;;;;;3.42;1.80;;;;;;;20.01;74.53;98987.88;5089538;28;20854;-80
2023/06/11 03:05:16;;;;;;;3.17;1.98;;;;;;;20.31;74.33;99035.00;5074735;28;20070;-80
2023/06/11 03:07:41;;;;;;;4.15;2.83;;;;;;;20.23;74.57;99022.13;5091854;28;20032;-80
2023/06/11 03:10:07;;;;;;;4.93;1.98;;;;;;;20.42;74.02;99042.31;5092370;28;20059;-81
2023/06/11 03:12:33;;;;;;;5.95;2.30;;;;;;;20.26;74.22;99010.34;5092475;28;20111;-80
2023/06/11 03:14:58;;;;;;;3.72;1.98;;;;;;;20.32;74.58;99040.25;5093418;28;20502;-81
2023/06/11 03:17:24;;;;;;;2.10;1.25;;;;;;;20.23;74.66;99003.38;5092575;28;20030;-81
2023/06/11 03:19:49;;;;;;;2.85;2.03;;;;;;;20.39;74.30;99030.88;5092145;28;20028;-81
2023/06/11 03:22:15;;;;;;;5.85;2.85;;;;;;;20.26;74.57;98996.97;5091782;28;20501;-81
2023/06/11 03:24:40;;;;;;;4.80;2.00;;;;;;;20.01;75.28;99007.44;5074489;28;20054;-81
2023/06/11 03:27:06;;;;;;;3.13;1.70;;;;;;;20.23;75.47;99022.13;5092238;28;20046;-80
2023/06/11 03:29:31;;;;;;;2.95;2.00;;;;;;;20.17;75.15;99015.38;5091801;28;20024;-80
2023/06/11 03:31:57;;;;;;;3.03;1.73;;;;;;;20.25;75.11;99016.66;5074049;28;20044;-80
2023/06/11 03:34:22;;;;;;;3.08;2.67;;;;;;;20.42;74.50;99036.97;5091513;28;20127;-80
2023/06/11 03:36:48;;;;;;;5.90;2.72;;;;;;;20.00;74.84;99012.91;5093157;28;20139;-80
2023/06/11 03:39:14;;;;;;;2.50;1.75;;;;;;;20.10;74.19;99007.84;5091488;28;20421;-80
2023/06/11 03:41:39;;;;;;;3.10;1.90;;;;;;;20.43;74.48;99039.53;5100047;28;20031;-81
2023/06/11 03:44:05;;;;;;;5.38;2.42;;;;;;;20.18;74.41;98990.28;5111323;28;20032;-81
2023/06/11 03:46:31;;;;;;;4.68;2.50;;;;;;;20.47;74.73;99043.75;5101662;28;20027;-80
2023/06/11 03:48:57;;;;;;;3.35;2.40;;;;;;;20.49;74.78;99035.63;5092029;28;20035;-80
2023/06/11 03:51:22;;;;;;;5.18;2.65;;;;;;;20.59;74.63;99034.06;5103822;28;20134;-80
2023/06/11 03:53:48;;;;;;;4.30;2.08;;;;;;;20.42;74.64;98999.47;5111871;28;20127;-80
2023/06/11 03:56:13;;;;;;;5.13;3.13;;;;;;;20.74;74.14;99042.91;5080435;28;20039;-81
2023/06/11 03:58:39;;;;;;;9.63;3.63;;;;;;;20.47;74.27;98992.84;5101476;28;20038;-82
2023/06/11 04:01:05;;;;;;;2.65;1.60;;;;;;;20.72;73.91;99026.91;5112491;28;20062;-80
2023/06/11 04:03:30;;;;;;;4.25;2.35;;;;;;;20.83;74.16;99041.41;5111937;28;20062;-81
2023/06/11 04:05:56;;;;;;;5.60;2.28;;;;;;;20.95;72.94;99032.53;5111945;28;20139;-80
2023/06/11 04:08:21;;;;;;;1.70;1.38;;;;;;;20.85;73.76;99018.94;5075341;28;20036;-81
2023/06/11 04:10:47;;;;;;;3.58;2.35;;;;;;;20.81;73.46;99006.69;5099535;28;20063;-80
2023/06/11 04:13:12;;;;;;;5.03;2.70;;;;;;;20.89;72.55;98995.44;5110240;27;20085;-81
2023/06/11 04:15:38;;;;;;;3.33;1.58;;;;;;;20.97;73.29;99033.28;5099869;28;20039;-81
2023/06/11 04:18:03;;;;;;;2.50;1.95;;;;;;;20.75;73.82;99012.47;5094656;27;20525;-81
2023/06/11 04:20:29;;;;;;;2.47;1.95;;;;;;;21.01;72.91;99007.16;5101440;28;20024;-83
2023/06/11 04:22:55;;;;;;;2.60;1.85;;;;;;;20.93;73.32;99018.41;5076969;28;20154;-83
2023/06/11 04:25:20;;;;;;;4.32;2.38;;;;;;;21.07;72.24;99014.78;5111292;28;20054;-82
2023/06/11 04:27:46;;;;;;;2.50;1.95;;;;;;;21.33;71.75;99044.25;5082885;28;20062;-82
2023/06/11 04:30:13;;;;;;;9.10;4.15;;;;;;;21.42;71.39;99044.47;5095451;28;20028;-82
2023/06/11 04:32:40;;;;;;;2.30;1.45;;;;;;;21.32;71.21;98999.63;5094253;28;20027;-82
2023/06/11 04:35:06;;;;;;;10.50;3.10;;;;;;;21.74;70.49;99041.34;5092830;28;20029;-82
2023/06/11 04:37:38;;;;;;;2.67;1.77;;;;;;;21.50;70.75;99037.75;5094433;27;20130;-82
2023/06/11 04:40:09;;;;;;;5.13;2.50;;;;;;;21.60;70.64;99049.56;5099271;28;20060;-83
2023/06/11 04:42:35;;;;;;;4.20;1.80;;;;;;;21.37;71.63;99014.44;5080222;28;20512;-83
2023/06/11 04:45:04;;;;;;;3.15;2.00;;;;;;;21.68;70.27;99017.66;5095411;27;20023;-82
2023/06/11 04:47:32;;;;;;;7.38;1.77;;;;;;;21.55;69.68;99004.25;5098126;27;20038;-83
2023/06/11 04:50:02;;;;;;;5.00;2.42;;;;;;;21.36;71.72;99011.84;5095534;28;20028;-83
2023/06/11 04:52:31;;;;;;;6.95;3.22;;;;;;;21.28;71.27;98993.63;5099950;28;20059;-82
2023/06/11 04:55:03;;;;;;;4.10;2.05;;;;;;;21.34;71.56;99000.38;5092790;27;20068;-82
2023/06/11 04:57:28;;;;;;;6.40;1.80;;;;;;;21.45;70.98;98998.63;5079401;28;20470;-82
2023/06/11 04:59:55;;;;;;;4.25;2.60;;;;;;;21.66;70.57;98990.06;5094742;28;20111;-81
2023/06/11 05:02:21;;;;;;;3.03;2.30;;;;;;;21.50;70.47;98981.41;5094045;28;20032;-82
2023/06/11 05:04:49;;;;;;;5.30;2.03;;;;;;;21.98;69.85;99002.97;5072995;28;20035;-82
2023/06/11 05:07:17;;;;;;;2.10;1.38;;;;;;;22.02;70.37;99036.69;5090591;28;20463;-82
2023/06/11 05:09:44;;;;;;;5.93;2.53;;;;;;;21.80;70.73;99040.91;5067888;28;20648;-83
2023/06/11 05:12:09;;;;;;;5.70;1.85;;;;;;;21.95;70.26;99046.13;5090588;28;20107;-81
2023/06/11 05:14:35;;;;;;;8.13;1.60;;;;;;;22.11;70.28;99035.16;5089094;28;20208;-82
2023/06/11 05:17:01;;;;;;;6.57;1.77;;;;;;;22.20;70.51;99026.44;5091806;28;20028;-82
2023/06/11 05:19:26;;;;;;;3.25;2.20;;;;;;;22.27;70.22;99010.69;5093740;28;20028;-81
2023/06/11 05:21:52;;;;;;;7.03;2.15;;;;;;;22.98;68.74;99048.41;5093784;28;20463;-83
2023/06/11 05:24:20;;;;;;;4.00;2.92;;;;;;;22.80;67.05;99021.09;5092954;27;20028;-83
2023/06/11 05:26:46;;;;;;;3.65;1.52;;;;;;;23.15;66.39;99020.25;5091846;28;20031;-83
2023/06/11 05:29:12;;;;;;;3.30;1.88;;;;;;;22.97;64.44;99028.75;5093249;28;20089;-82
2023/06/11 05:31:38;;;;;;;3.05;1.83;;;;;;;23.10;65.34;99047.50;5094842;28;20031;-83
2023/06/11 05:34:04;;;;;;;6.85;1.95;;;;;;;23.36;64.55;99034.72;5091972;28;20032;-83
2023/06/11 05:36:29;;;;;;;4.78;3.35;;;;;;;23.15;65.49;99053.38;5095932;28;20036;-82
2023/06/11 05:38:56;;;;;;;3.90;2.25;;;;;;;22.93;64.73;98996.84;5090473;28;20063;-84
2023/06/11 05:41:22;;;;;;;4.32;1.83;;;;;;;23.37;64.84;99031.06;5091302;28;20123;-85
2023/06/11 05:43:48;;;;;;;4.03;2.28;;;;;;;23.85;62.72;99046.16;5104209;27;20395;-82
2023/06/11 05:46:14;;;;;;;3.15;2.45;;;;;;;23.36;61.25;98990.81;5089923;28;20111;-88
2023/06/11 05:48:41;;;;;;;2.63;1.50;;;;;;;23.69;62.65;99038.38;5088422;28;20045;-86
2023/06/11 05:51:07;;;;;;;4.95;1.88;;;;;;;23.85;60.06;99011.13;5072888;28;20032;-86
2023/06/11 05:53:32;;;;;;;2.67;1.55;;;;;;;23.73;60.64;99018.31;5074553;28;20055;-85
2023/06/11 05:56:03;;;;;;;4.15;0.90;;;;;;;23.95;60.02;99038.16;5089561;28;20039;-84
2023/06/11 05:58:32;;;;;;;2.85;1.65;;;;;;;24.04;60.29;99023.09;5088025;28;20039;-84
2023/06/11 06:01:02;;;;;;;3.03;1.92;;;;;;;24.49;58.68;99040.00;5095730;28;20676;-86
2023/06/11 06:03:33;;;;;;;7.10;4.30;;;;;;;24.56;58.07;99042.19;5091129;28;20115;-86
2023/06/11 06:06:01;;;;;;;7.25;3.00;;;;;;;24.65;57.03;99045.03;5081383;28;20409;-85
2023/06/11 06:08:30;;;;;;;1.95;1.20;;;;;;;24.95;57.73;99012.88;5102079;28;20038;-85
2023/06/11 06:10:57;;;;;;;3.38;2.53;;;;;;;25.04;57.85;99041.78;5096183;28;20035;-83
2023/06/11 06:13:26;;;;;;;2.92;2.25;;;;;;;25.35;56.93;99028.34;5098827;27;20035;-84
2023/06/11 06:15:52;;;;;;;3.00;2.33;;;;;;;26.07;53.06;99053.53;5094050;28;20057;-86
2023/06/11 06:18:18;;;;;;;1.17;1.05;;;;;;;25.76;54.43;99031.94;5095644;28;20028;-86
2023/06/11 06:20:43;;;;;;;1.33;1.05;;;;;;;25.69;54.36;99023.53;5101062;28;20042;-84
2023/06/11 06:23:10;;;;;;;2.97;1.65;;;;;;;26.14;53.45;99038.50;5098302;27;20089;-84
2023/06/11 06:25:37;;;;;;;2.85;1.83;;;;;;;26.22;54.45;99019.72;5100057;27;20039;-84
2023/06/11 06:28:06;;;;;;;2.95;1.27;;;;;;;26.54;52.99;99036.69;5096164;27;20054;-85
2023/06/11 06:30:33;;;;;;;2.53;1.58;;;;;;;26.88;53.74;99037.19;5096096;27;20110;-87
2023/06/11 06:32:59;;;;;;;3.72;1.83;;;;;;;27.15;51.25;99009.34;5094440;28;20027;-84
2023/06/11 06:35:25;;;;;;;2.97;1.63;;;;;;;27.47;48.33;99031.69;5093954;28;20043;-83
2023/06/11 06:37:51;;;;;;;1.48;0.98;;;;;;;27.07;49.68;99038.16;5097534;28;20512;-83
2023/06/11 06:40:17;;;;;;;2.78;1.70;;;;;;;26.72;51.61;99009.84;5094423;28;20044;-85
2023/06/11 06:42:42;;;;;;;1.45;1.05;;;;;;;27.46;48.00;99019.97;5097079;28;20462;-83
2023/06/11 06:45:08;;;;;;;2.05;1.20;;;;;;;27.68;46.18;99021.47;5095974;28;20032;-84
2023/06/11 06:47:34;;;;;;;4.22;1.40;;;;;;;27.36;45.70;99007.47;5091918;28;20513;-85
2023/06/11 06:49:59;;;;;;;2.83;1.90;;;;;;;26.66;47.57;98999.59;5096711;28;20040;-87
2023/06/11 06:52:25;;;;;;;3.42;1.70;;;;;;;27.11;49.00;99002.53;5095282;28;20019;-85
2023/06/11 06:54:51;;;;;;;2.70;2.33;;;;;;;27.67;46.61;99016.22;5097792;28;20032;-86
2023/06/11 06:57:17;;;;;;;3.40;2.20;;;;;;;28.46;45.81;99020.19;5097690;28;20063;-85
2023/06/11 06:59:43;;;;;;;1.80;1.45;;;;;;;27.93;44.64;99000.13;5097176;28;20019;-84
2023/06/11 07:02:09;;;;;;;1.70;1.13;;;;;;;27.38;44.00;98984.66;5097813;28;20039;-86
2023/06/11 07:04:35;;;;;;;1.95;1.35;;;;;;;27.86;47.06;99037.78;5090975;28;20489;-85
2023/06/11 07:07:00;;;;;;;1.70;0.98;;;;;;;27.76;45.18;99001.78;5088323;27;20118;-84
2023/06/11 07:09:26;;;;;;;3.47;1.92;;;;;;;28.06;43.89;99016.03;5093612;28;20595;-85
2023/06/11 07:11:52;;;;;;;3.08;1.48;;;;;;;27.95;43.61;98987.28;5092262;28;20032;-86
2023/06/11 07:14:18;;;;;;;3.38;1.00;;;;;;;27.72;44.52;98973.25;5092996;28;20173;-85
2023/06/11 07:16:44;;;;;;;2.42;1.30;;;;;;;27.85;44.43;98995.44;5101979;27;20102;-84
2023/06/11 07:19:10;;;;;;;3.50;1.98;;;;;;;27.91;43.53;99001.25;5093484;28;20036;-85
2023/06/11 07:21:36;;;;;;;2.85;1.67;;;;;;;28.24;44.60;99018.78;5096092;27;20028;-85
2023/06/11 07:24:07;;;;;;;3.50;1.58;;;;;;;27.96;44.32;98997.13;5094348;27;20030;-86
2023/06/11 07:26:33;;;;;;;2.33;1.48;;;;;;;27.97;45.48;99001.53;5090914;27;20027;-85
2023/06/11 07:28:59;;;;;;;2.33;1.55;;;;;;;28.30;41.58;99009.16;5093384;28;20351;-88
2023/06/11 07:31:26;;;;;;;2.13;1.45;;;;;;;28.65;43.47;99002.94;5097837;28;20032;-86
2023/06/11 07:33:52;;;;;;;1.95;1.40;;;;;;;29.16;41.48;99030.31;5093267;27;20119;-86
2023/06/11 07:36:18;;;;;;;3.53;1.95;;;;;;;29.52;41.12;99016.69;5089872;28;20122;-86
2023/06/11 07:38:44;;;;;;;2.97;1.65;;;;;;;29.72;40.68;98990.13;5101187;28;20019;-86
2023/06/11 07:41:10;;;;;;;2.80;1.63;;;;;;;29.66;39.00;99020.66;5080303;28;20048;-86
2023/06/11 07:43:36;;;;;;;3.40;1.63;;;;;;;30.30;37.95;99002.03;5093795;28;20039;-86
2023/06/11 07:46:03;;;;;;;3.00;1.58;;;;;;;30.09;39.35;98994.34;5095734;27;20024;-86
2023/06/11 07:48:29;;;;;;;3.05;1.90;;;;;;;30.70;37.05;99019.47;5094548;28;20070;-87
2023/06/11 07:50:55;;;;;;;4.07;2.08;;;;;;;30.22;39.60;99014.78;5093062;28;20032;-85
2023/06/11 07:53:21;;;;;;;4.95;1.75;;;;;;;30.24;38.74;98985.53;5096692;27;20055;-85
2023/06/11 07:55:49;;;;;;;1.50;1.38;;;;;;;30.89;36.92;99010.13;5094697;28;20474;-86
2023/06/11 07:58:15;;;;;;;3.38;1.98;;;;;;;31.36;35.93;99011.28;5092225;28;20417;-85
2023/06/11 08:00:41;;;;;;;2.55;1.80;;;;;;;30.74;36.03;99038.19;5091649;28;20035;-84
2023/06/11 08:03:08;;;;;;;2.55;1.63;;;;;;;30.70;36.69;98986.81;5091764;28;20093;-85
2023/06/11 08:05:33;;;;;;;2.72;1.38;;;;;;;30.98;38.28;99007.44;5090101;28;20052;-86
2023/06/11 08:07:59;;;;;;;5.95;1.70;;;;;;;30.26;38.95;99002.53;5096281;28;20059;-85
2023/06/11 08:10:25;;;;;;;1.73;1.35;;;;;;;30.92;35.36;99021.69;5091505;28;20106;-85
2023/06/11 08:12:51;;;;;;;3.35;1.70;;;;;;;30.99;37.91;98971.88;5091361;28;20024;-87
2023/06/11 08:15:16;;;;;;;2.83;1.20;;;;;;;31.31;33.79;98993.75;5073620;28;20031;-85
2023/06/11 08:17:42;;;;;;;4.45;1.70;;;;;;;31.71;33.05;98990.09;5072855;28;20032;-85
2023/06/11 08:20:08;;;;;;;3.97;1.60;;;;;;;31.95;32.80;98983.69;5072728;28;20031;-85
2023/06/11 08:22:33;;;;;;;2.92;1.73;;;;;;;32.36;33.85;99022.69;5098427;28;20038;-83
2023/06/11 08:24:59;;;;;;;2.47;1.02;;;;;;;31.76;33.59;98973.19;5111804;28;20027;-84
2023/06/11 08:27:24;;;;;;;4.10;3.17;;;;;;;31.55;33.57;98973.81;5077953;28;20032;-85
2023/06/11 08:29:49;;;;;;;5.57;3.28;;;;;;;31.35;33.29;98978.78;5091234;28;20063;-86
2023/06/11 08:32:15;;;;;;;5.47;3.75;;;;;;;31.61;31.99;98988.63;5090556;28;20105;-87
2023/06/11 08:34:40;;;;;;;5.50;2.75;;;;;;;31.49;33.17;98975.31;5090818;28;20485;-82
2023/06/11 08:37:06;;;;;;;5.18;3.03;;;;;;;31.44;32.03;98988.63;5091031;28;20032;-84
2023/06/11 08:39:32;;;;;;;61.05;38.90;;;;;;;31.33;31.75;99005.34;5099493;28;20062;-85
2023/06/11 08:41:57;;;;;;;81.05;48.92;;;;;;;31.94;31.99;99008.41;5093035;28;20032;-85
2023/06/11 08:44:23;;;;;;;98.57;64.57;;;;;;;31.82;31.93;98985.28;5094380;28;20031;-84
2023/06/11 08:46:49;;;;;;;376.67;237.10;;;;;;;31.95;33.06;98989.13;5090069;28;20028;-84
2023/06/11 08:49:24;;;;;;;59.45;44.92;;;;;;;31.90;31.33;98982.50;5096468;28;20036;-84
2023/06/11 08:51:49;;;;;;;250.02;148.32;;;;;;;31.51;31.92;98986.91;5105971;27;20107;-84
2023/06/11 08:54:18;;;;;;;116.25;64.43;;;;;;;31.76;30.57;99005.91;5097634;27;20050;-83
2023/06/11 08:56:45;;;;;;;164.68;85.13;;;;;;;31.70;31.02;98990.25;5089531;28;20089;-84
2023/06/11 08:59:10;;;;;;;583.42;345.85;;;;;;;31.42;33.05;99001.59;5088879;28;20463;-85
2023/06/11 09:01:36;;;;;;;374.75;178.57;;;;;;;31.42;31.62;98974.34;5090689;28;20037;-85
2023/06/11 09:04:01;;;;;;;351.10;213.85;;;;;;;31.82;31.04;98986.13;5090171;28;20477;-84
2023/06/11 09:06:28;;;;;;;448.58;394.23;;;;;;;32.14;31.81;98987.03;5090265;28;20040;-84
2023/06/11 09:09:02;;;;;;;463.77;247.30;;;;;;;32.12;30.46;98989.94;5090576;28;20024;-86
2023/06/11 09:11:32;;;;;;;233.75;117.45;;;;;;;32.17;31.32;99013.09;5090670;28;20042;-83
2023/06/11 09:13:57;;;;;;;923.53;654.28;;;;;;;32.04;31.72;98989.94;5090250;28;20035;-83
2023/06/11 09:16:23;;;;;;;617.95;440.10;;;;;;;31.94;31.11;98975.69;5071146;28;20040;-83
2023/06/11 09:18:48;;;;;;;317.85;180.38;;;;;;;31.91;31.85;98967.84;5090043;28;20038;-84
2023/06/11 09:21:13;;;;;;;82.75;42.58;;;;;;;31.42;31.25;98967.00;5090224;28;20040;-83
2023/06/11 09:23:39;;;;;;;487.17;327.33;;;;;;;31.86;31.84;98978.47;5089670;28;20036;-84
2023/06/11 09:26:05;;;;;;;185.60;157.85;;;;;;;32.30;31.31;98947.88;5073208;28;20379;-84
2023/06/11 09:28:35;;;;;;;1133.88;634.90;;;;;;;32.64;30.61;98977.50;5097972;28;20031;-84
2023/06/11 09:31:02;;;;;;;354.50;234.75;;;;;;;32.65;28.74;98968.25;5102574;28;20042;-83
2023/06/11 09:33:29;;;;;;;283.55;155.35;;;;;;;33.00;28.91;98962.34;5100716;28;20027;-83
2023/06/11 09:35:55;;;;;;;215.23;122.32;;;;;;;32.06;30.24;98951.59;5097760;28;20046;-84
2023/06/11 09:38:21;;;;;;;12.55;9.38;;;;;;;32.12;30.34;98954.47;5082301;28;20454;-84
2023/06/11 09:40:48;;;;;;;5.63;3.05;;;;;;;32.63;29.42;98959.38;5086258;28;20039;-83
2023/06/11 09:43:14;;;;;;;4.47;2.60;;;;;;;32.77;30.85;98937.81;5082986;28;20111;-82
2023/06/11 09:45:41;;;;;;;5.60;2.70;;;;;;;32.58;30.57;98945.44;5097846;28;20480;-82
2023/06/11 09:48:10;;;;;;;1.40;1.10;;;;;;;32.20;30.29;98969.94;5079037;28;20047;-83
2023/06/11 09:50:36;;;;;;;4.10;2.17;;;;;;;32.31;29.89;98930.47;5100498;28;20019;-81
2023/06/11 09:53:03;;;;;;;1.63;0.75;;;;;;;32.11;30.18;98939.13;5092983;28;20165;-83
2023/06/11 09:55:35;;;;;;;2.65;1.35;;;;;;;32.02;29.57;98963.88;5088132;28;20028;-83
2023/06/11 09:58:02;;;;;;;5.32;2.33;;;;;;;32.34;29.84;98932.00;5089675;28;20501;-86
2023/06/11 10:00:28;;;;;;;13.93;4.53;;;;;;;32.80;28.98;98935.56;5092456;28;20630;-86
2023/06/11 10:02:53;;;;;;;1.50;1.10;;;;;;;32.08;29.50;98942.19;5098465;28;20047;-83
2023/06/11 10:05:20;;;;;;;3.45;1.83;;;;;;;31.66;29.92;98928.97;5094242;28;20039;-87
2023/06/11 10:08:03;;;;;;;2.08;1.55;;;;;;;31.94;30.09;98915.69;5094699;28;20059;-84
2023/06/11 10:10:36;;;;;;;5.18;2.08;;;;;;;31.95;30.53;98933.75;5106014;28;20027;-82
2023/06/11 10:13:02;;;;;;;1.70;0.80;;;;;;;31.99;29.83;98950.59;5073771;28;20035;-85
2023/06/11 10:15:31;;;;;;;4.45;1.40;;;;;;;31.84;29.62;98955.94;5091937;28;20497;-83
2023/06/11 10:17:57;;;;;;;3.75;1.95;;;;;;;31.97;31.73;98919.94;5073836;28;20032;-82
2023/06/11 10:20:28;;;;;;;3.88;2.38;;;;;;;32.01;29.32;98938.50;5097039;28;20509;-84
2023/06/11 10:23:10;;;;;;;2.42;1.42;;;;;;;31.65;31.00;98919.91;5099084;28;20063;-84
2023/06/11 10:25:40;;;;;;;2.05;1.25;;;;;;;32.29;29.54;98919.75;5090166;28;20027;-87
2023/06/11 10:28:07;;;;;;;2.03;1.13;;;;;;;31.93;29.81;98919.44;5090243;28;20078;-84
2023/06/11 10:30:33;;;;;;;1.77;1.27;;;;;;;31.85;30.47;98914.03;5095557;28;20028;-84
2023/06/11 10:32:59;;;;;;;2.20;1.73;;;;;;;32.45;30.35;98920.66;5078888;28;20023;-83
2023/06/11 10:35:28;;;;;;;2.75;1.20;;;;;;;32.07;30.51;98917.81;5097708;28;20412;-84
2023/06/11 10:38:05;;;;;;;1.75;1.17;;;;;;;32.23;30.15;98936.84;5096153;28;20037;-86
2023/06/11 10:40:38;;;;;;;1.45;1.17;;;;;;;32.45;29.59;98902.38;5097574;28;20051;-83
2023/06/11 10:43:16;;;;;;;5.50;1.88;;;;;;;32.84;30.48;98923.25;5073866;28;20031;-84
2023/06/11 10:45:42;;;;;;;2.90;1.55;;;;;;;32.21;29.69;98895.25;5089940;28;20043;-84
2023/06/11 10:48:09;;;;;;;1.60;0.95;;;;;;;32.75;29.59;98918.91;5091192;28;20085;-84
2023/06/11 10:50:35;;;;;;;1.08;0.75;;;;;;;31.98;29.81;98902.53;5070796;28;20230;-83
2023/06/11 10:53:07;;;;;;;1.90;1.20;;;;;;;32.26;28.20;98875.63;5088145;28;20489;-84
2023/06/11 10:55:34;;;;;;;3.95;1.20;;;;;;;32.26;29.28;98911.91;5091432;28;20032;-83
2023/06/11 10:58:01;;;;;;;2.30;1.42;;;;;;;31.79;29.85;98915.59;5104486;28;20035;-83
2023/06/11 11:00:32;;;;;;;2.45;1.48;;;;;;;31.89;29.75;98894.41;5094014;28;20070;-85
2023/06/11 11:02:59;;;;;;;3.40;1.42;;;;;;;32.28;29.31;98930.84;5091692;28;20028;-84
2023/06/11 11:05:28;;;;;;;5.05;1.75;;;;;;;31.95;29.77;98903.75;5092301;28;20028;-83
2023/06/11 11:07:54;;;;;;;2.38;1.17;;;;;;;30.85;30.85;98880.00;5091815;28;20391;-83
2023/06/11 11:10:26;;;;;;;2.45;1.38;;;;;;;31.11;30.68;98917.91;5092938;28;20039;-84
2023/06/11 11:12:53;;;;;;;2.17;1.17;;;;;;;30.56;30.43;98897.72;5111185;28;20041;-83
2023/06/11 11:15:19;;;;;;;1.48;1.02;;;;;;;30.95;29.30;98928.78;5112091;28;20062;-85
2023/06/11 11:17:47;;;;;;;2.08;1.30;;;;;;;31.28;30.00;98916.00;5096388;28;20414;-84
2023/06/11 11:20:17;;;;;;;1.52;0.70;;;;;;;30.97;30.90;98922.19;5092201;28;20559;-83
2023/06/11 11:22:48;;;;;;;1.83;1.15;;;;;;;30.77;31.42;98915.38;5077778;28;20027;-83
2023/06/11 11:25:15;;;;;;;1.90;0.98;;;;;;;30.42;31.52;98895.69;5097793;28;20039;-83
2023/06/11 11:27:43;;;;;;;1.60;0.90;;;;;;;30.91;31.27;98900.19;5092304;28;20036;-83
2023/06/11 11:30:09;;;;;;;4.18;0.77;;;;;;;30.80;31.31;98907.72;5109598;28;20032;-83